createdAt,value
2023-01-17T00:00:33.811Z,94.01
2023-01-17T00:01:33.863Z,93.49
2023-01-17T00:02:33.865Z,93.49
2023-01-17T00:03:33.787Z,93.59
2023-01-17T00:04:33.741Z,93.38
2023-01-17T00:05:33.772Z,93.38
2023-01-17T00:06:33.743Z,93.18
2023-01-17T00:07:33.743Z,93.28
2023-01-17T00:08:33.793Z,93.59
2023-01-17T00:09:33.725Z,93.28
2023-01-17T00:10:33.682Z,93.28
2023-01-17T00:11:33.704Z,93.38
2023-01-17T00:12:33.655Z,93.07
2023-01-17T00:13:33.644Z,92.86
2023-01-17T00:14:33.656Z,92.45
2023-01-17T00:15:33.671Z,92.97
2023-01-17T00:16:33.658Z,92.86
2023-01-17T00:17:34.269Z,92.35
2023-01-17T00:18:33.576Z,92.55
2023-01-17T00:19:33.570Z,92.35
2023-01-17T00:20:33.592Z,92.35
2023-01-17T00:21:34.262Z,92.14
2023-01-17T00:22:33.587Z,92.14
2023-01-17T00:23:33.575Z,92.14
2023-01-17T00:24:33.561Z,92.03
2023-01-17T00:25:33.528Z,91.93
2023-01-17T00:26:33.496Z,92.55
2023-01-17T00:27:33.553Z,92.45
2023-01-17T00:28:33.608Z,92.03
2023-01-17T00:29:33.483Z,91.93
2023-01-17T00:30:33.513Z,92.35
2023-01-17T00:31:33.495Z,92.35
2023-01-17T00:32:33.470Z,92.35
2023-01-17T00:33:34.470Z,91.93
2023-01-17T00:34:33.413Z,92.59
2023-01-17T00:35:33.400Z,92.69
2023-01-17T00:36:33.393Z,93.63
2023-01-17T00:37:33.419Z,93.63
2023-01-17T00:38:33.401Z,93.63
2023-01-17T00:39:33.501Z,94.26
2023-01-17T00:40:33.423Z,94.42
2023-01-17T00:41:33.433Z,94.26
2023-01-17T00:42:33.423Z,93.74
2023-01-17T00:43:33.370Z,94.05
2023-01-17T00:44:33.408Z,94.05
2023-01-17T00:45:33.364Z,94.05
2023-01-17T00:46:33.409Z,93.84
2023-01-17T00:47:33.303Z,93.74
2023-01-17T00:48:33.311Z,93.84
2023-01-17T00:49:33.312Z,94.05
2023-01-17T00:50:33.303Z,93.63
2023-01-17T00:51:33.307Z,93.53
2023-01-17T00:52:33.309Z,94.26
2023-01-17T00:53:33.308Z,94.36
2023-01-17T00:54:33.242Z,94.36
2023-01-17T00:55:33.263Z,94.36
2023-01-17T00:56:33.259Z,94.15
2023-01-17T00:57:33.213Z,94.57
2023-01-17T00:58:33.235Z,94.36
2023-01-17T00:59:33.249Z,94.36
2023-01-17T01:00:33.324Z,93.84
2023-01-17T01:01:33.239Z,94.36
2023-01-17T01:02:33.226Z,94.46
2023-01-17T01:03:33.174Z,93.74
2023-01-17T01:04:33.207Z,94.67
2023-01-17T01:05:33.138Z,94.46
2023-01-17T01:06:33.229Z,94.26
2023-01-17T01:07:33.090Z,94.67
2023-01-17T01:08:33.060Z,93.63
2023-01-17T01:09:33.155Z,94.05
2023-01-17T01:10:33.071Z,93.18
2023-01-17T01:11:33.101Z,93.49
2023-01-17T01:12:33.072Z,93.01
2023-01-17T01:13:33.075Z,92.90
2023-01-17T01:14:33.044Z,93.01
2023-01-17T01:15:33.136Z,92.59
2023-01-17T01:16:33.077Z,92.49
2023-01-17T01:17:33.062Z,92.07
2023-01-17T01:18:33.012Z,92.45
2023-01-17T01:19:33.008Z,92.35
2023-01-17T01:20:32.957Z,92.35
2023-01-17T01:21:32.964Z,91.93
2023-01-17T01:22:32.985Z,92.24
2023-01-17T01:23:32.949Z,92.59
2023-01-17T01:24:32.932Z,92.14
2023-01-17T01:25:32.924Z,91.83
2023-01-17T01:26:32.931Z,91.62
2023-01-17T01:27:32.954Z,90.89
2023-01-17T01:28:32.908Z,91.00
2023-01-17T01:29:32.897Z,90.79
2023-01-17T01:30:32.927Z,90.79
2023-01-17T01:31:32.879Z,91.00
2023-01-17T01:32:32.843Z,90.27
2023-01-17T01:33:32.863Z,90.89
2023-01-17T01:34:32.871Z,90.79
2023-01-17T01:35:32.834Z,89.75
2023-01-17T01:36:32.844Z,89.96
2023-01-17T01:37:32.794Z,89.86
2023-01-17T01:38:32.832Z,89.86
2023-01-17T01:39:32.789Z,89.44
2023-01-17T01:40:33.360Z,89.44
2023-01-17T01:41:32.762Z,89.34
2023-01-17T01:42:32.753Z,89.23
2023-01-17T01:43:32.811Z,89.34
2023-01-17T01:44:32.725Z,89.86
2023-01-17T01:45:32.808Z,89.13
2023-01-17T01:46:32.737Z,89.23
2023-01-17T01:47:33.407Z,89.23
2023-01-17T01:48:32.694Z,89.23
2023-01-17T01:49:32.677Z,89.23
2023-01-17T01:50:32.677Z,89.23
2023-01-17T01:51:32.631Z,89.34
2023-01-17T01:52:32.659Z,88.82
2023-01-17T01:53:32.618Z,89.23
2023-01-17T01:54:32.614Z,89.23
2023-01-17T01:55:32.635Z,89.34
2023-01-17T01:56:32.616Z,89.03
2023-01-17T01:57:32.581Z,88.92
2023-01-17T01:58:32.580Z,89.03
2023-01-17T01:59:32.562Z,89.34
2023-01-17T02:00:32.582Z,88.92
2023-01-17T02:01:32.692Z,89.03
2023-01-17T02:02:32.567Z,89.03
2023-01-17T02:03:32.589Z,89.13
2023-01-17T02:04:32.540Z,89.13
2023-01-17T02:05:32.517Z,89.03
2023-01-17T02:06:32.490Z,89.13
2023-01-17T02:07:32.454Z,88.92
2023-01-17T02:08:32.510Z,88.92
2023-01-17T02:09:32.468Z,89.03
2023-01-17T02:10:32.455Z,88.61
2023-01-17T02:11:32.464Z,89.03
2023-01-17T02:12:32.461Z,89.23
2023-01-17T02:13:32.434Z,89.37
2023-01-17T02:14:32.395Z,89.23
2023-01-17T02:15:32.389Z,89.34
2023-01-17T02:16:32.426Z,89.27
2023-01-17T02:17:32.405Z,89.58
2023-01-17T02:18:33.239Z,89.06
2023-01-17T02:19:32.386Z,89.58
2023-01-17T02:20:32.392Z,89.27
2023-01-17T02:21:32.336Z,89.13
2023-01-17T02:22:32.413Z,89.23
2023-01-17T02:23:32.331Z,89.58
2023-01-17T02:24:32.262Z,89.65
2023-01-17T02:25:32.283Z,89.58
2023-01-17T02:26:32.282Z,90.06
2023-01-17T02:27:32.295Z,89.89
2023-01-17T02:28:32.244Z,89.58
2023-01-17T02:29:32.261Z,89.89
2023-01-17T02:30:32.250Z,89.58
2023-01-17T02:31:32.260Z,89.48
2023-01-17T02:32:32.230Z,89.69
2023-01-17T02:33:32.244Z,89.69
2023-01-17T02:34:32.203Z,89.58
2023-01-17T02:35:32.171Z,89.79
2023-01-17T02:36:32.163Z,89.89
2023-01-17T02:37:32.140Z,89.48
2023-01-17T02:38:32.200Z,89.48
2023-01-17T02:39:32.167Z,89.48
2023-01-17T02:40:32.127Z,90.10
2023-01-17T02:41:32.876Z,89.58
2023-01-17T02:42:32.143Z,89.48
2023-01-17T02:43:32.188Z,89.44
2023-01-17T02:44:32.121Z,89.17
2023-01-17T02:45:32.105Z,89.58
2023-01-17T02:46:32.111Z,90.00
2023-01-17T02:47:32.078Z,90.00
2023-01-17T02:48:32.084Z,90.20
2023-01-17T02:49:32.075Z,91.14
2023-01-17T02:50:32.060Z,90.83
2023-01-17T02:51:32.034Z,91.03
2023-01-17T02:52:32.013Z,90.93
2023-01-17T02:53:31.983Z,90.83
2023-01-17T02:54:31.996Z,91.03
2023-01-17T02:55:31.977Z,91.14
2023-01-17T02:56:32.699Z,90.93
2023-01-17T02:57:31.930Z,90.83
2023-01-17T02:58:31.943Z,90.93
2023-01-17T02:59:32.848Z,91.14
2023-01-17T03:00:31.890Z,91.14
2023-01-17T03:01:32.097Z,90.10
2023-01-17T03:02:32.026Z,91.14
2023-01-17T03:03:31.863Z,90.93
2023-01-17T03:04:31.890Z,90.83
2023-01-17T03:05:31.860Z,91.03
2023-01-17T03:06:31.842Z,91.03
2023-01-17T03:07:31.870Z,91.08
2023-01-17T03:08:31.846Z,90.93
2023-01-17T03:09:31.830Z,90.97
2023-01-17T03:10:31.794Z,91.03
2023-01-17T03:11:31.822Z,90.83
2023-01-17T03:12:31.779Z,90.93
2023-01-17T03:13:31.809Z,91.28
2023-01-17T03:14:31.797Z,91.03
2023-01-17T03:15:31.754Z,89.89
2023-01-17T03:16:31.787Z,89.69
2023-01-17T03:17:31.783Z,89.58
2023-01-17T03:18:31.769Z,89.89
2023-01-17T03:19:31.736Z,89.83
2023-01-17T03:20:31.725Z,89.83
2023-01-17T03:21:31.722Z,89.79
2023-01-17T03:22:31.645Z,90.14
2023-01-17T03:23:31.650Z,89.42
2023-01-17T03:24:31.688Z,89.83
2023-01-17T03:25:31.637Z,89.79
2023-01-17T03:26:31.680Z,89.48
2023-01-17T03:27:31.644Z,89.62
2023-01-17T03:28:31.646Z,89.17
2023-01-17T03:29:31.677Z,89.69
2023-01-17T03:30:31.631Z,89.42
2023-01-17T03:31:31.553Z,89.11
2023-01-17T03:32:31.553Z,89.06
2023-01-17T03:33:31.575Z,89.00
2023-01-17T03:34:31.615Z,88.65
2023-01-17T03:35:31.553Z,89.11
2023-01-17T03:36:31.532Z,89.06
2023-01-17T03:37:31.584Z,89.27
2023-01-17T03:38:31.521Z,89.48
2023-01-17T03:39:31.503Z,88.85
2023-01-17T03:40:31.485Z,88.96
2023-01-17T03:41:31.530Z,88.90
2023-01-17T03:42:31.575Z,89.31
2023-01-17T03:43:31.482Z,88.85
2023-01-17T03:44:31.423Z,88.85
2023-01-17T03:45:31.476Z,89.06
2023-01-17T03:46:31.405Z,89.27
2023-01-17T03:47:31.412Z,89.37
2023-01-17T03:48:31.457Z,88.96
2023-01-17T03:49:31.397Z,89.06
2023-01-17T03:50:31.442Z,89.52
2023-01-17T03:51:31.400Z,88.85
2023-01-17T03:52:31.360Z,88.65
2023-01-17T03:53:31.394Z,88.96
2023-01-17T03:54:31.424Z,89.11
2023-01-17T03:55:31.320Z,88.90
2023-01-17T03:56:31.352Z,89.17
2023-01-17T03:57:31.301Z,89.21
2023-01-17T03:58:31.295Z,89.11
2023-01-17T03:59:31.292Z,89.00
2023-01-17T04:00:31.371Z,89.58
2023-01-17T04:01:31.396Z,88.90
2023-01-17T04:02:31.293Z,89.37
2023-01-17T04:03:31.209Z,89.37
2023-01-17T04:04:31.262Z,89.42
2023-01-17T04:05:31.208Z,89.21
2023-01-17T04:06:31.238Z,89.73
2023-01-17T04:07:31.213Z,89.52
2023-01-17T04:08:31.213Z,90.04
2023-01-17T04:09:31.144Z,89.31
2023-01-17T04:10:31.196Z,89.62
2023-01-17T04:11:31.172Z,89.42
2023-01-17T04:12:31.157Z,89.62
2023-01-17T04:13:31.150Z,89.21
2023-01-17T04:14:31.136Z,89.42
2023-01-17T04:15:31.101Z,89.52
2023-01-17T04:16:31.159Z,89.52
2023-01-17T04:17:31.092Z,89.31
2023-01-17T04:18:31.073Z,90.04
2023-01-17T04:19:31.104Z,90.14
2023-01-17T04:20:31.074Z,89.83
2023-01-17T04:21:31.099Z,89.94
2023-01-17T04:22:31.045Z,89.52
2023-01-17T04:23:31.075Z,89.62
2023-01-17T04:24:31.027Z,89.73
2023-01-17T04:25:37.757Z,90.04
2023-01-17T04:26:31.045Z,89.73
2023-01-17T04:27:30.974Z,89.62
2023-01-17T04:28:30.961Z,89.11
2023-01-17T04:29:30.963Z,89.31
2023-01-17T04:30:31.014Z,89.52
2023-01-17T04:31:31.022Z,89.73
2023-01-17T04:32:30.997Z,89.52
2023-01-17T04:33:30.964Z,89.36
2023-01-17T04:34:30.993Z,89.21
2023-01-17T04:35:30.900Z,89.56
2023-01-17T04:36:30.910Z,89.62
2023-01-17T04:37:30.848Z,88.79
2023-01-17T04:38:30.920Z,89.62
2023-01-17T04:39:31.028Z,89.56
2023-01-17T04:40:30.975Z,89.31
2023-01-17T04:41:30.913Z,89.11
2023-01-17T04:42:30.863Z,89.15
2023-01-17T04:43:30.868Z,89.04
2023-01-17T04:44:30.893Z,89.31
2023-01-17T04:45:30.918Z,89.11
2023-01-17T04:46:30.884Z,89.31
2023-01-17T04:47:30.783Z,89.46
2023-01-17T04:48:30.874Z,89.31
2023-01-17T04:49:30.796Z,88.69
2023-01-17T04:50:30.817Z,89.00
2023-01-17T04:51:30.788Z,88.94
2023-01-17T04:52:30.719Z,88.62
2023-01-17T04:53:30.755Z,88.07
2023-01-17T04:54:30.712Z,88.48
2023-01-17T04:55:30.909Z,87.79
2023-01-17T04:56:30.743Z,87.59
2023-01-17T04:57:30.746Z,87.90
2023-01-17T04:58:30.659Z,87.90
2023-01-17T04:59:30.676Z,87.69
2023-01-17T05:00:30.736Z,87.79
2023-01-17T05:01:30.763Z,87.17
2023-01-17T05:02:30.698Z,87.79
2023-01-17T05:03:30.641Z,88.10
2023-01-17T05:04:30.698Z,88.10
2023-01-17T05:05:30.650Z,87.38
2023-01-17T05:06:30.638Z,86.96
2023-01-17T05:07:30.587Z,87.38
2023-01-17T05:08:30.591Z,87.48
2023-01-17T05:09:30.608Z,86.76
2023-01-17T05:10:30.641Z,87.59
2023-01-17T05:11:30.652Z,87.38
2023-01-17T05:12:30.659Z,87.84
2023-01-17T05:13:30.550Z,87.48
2023-01-17T05:14:30.593Z,87.84
2023-01-17T05:15:30.526Z,87.73
2023-01-17T05:16:30.545Z,87.11
2023-01-17T05:17:30.485Z,87.42
2023-01-17T05:18:30.594Z,87.11
2023-01-17T05:19:31.353Z,86.38
2023-01-17T05:20:30.544Z,85.86
2023-01-17T05:21:30.465Z,85.75
2023-01-17T05:22:30.592Z,86.07
2023-01-17T05:23:30.481Z,85.75
2023-01-17T05:24:30.462Z,86.07
2023-01-17T05:25:30.406Z,86.17
2023-01-17T05:26:30.448Z,85.96
2023-01-17T05:27:30.428Z,85.96
2023-01-17T05:28:30.552Z,86.32
2023-01-17T05:29:30.544Z,86.17
2023-01-17T05:30:30.344Z,86.11
2023-01-17T05:31:30.379Z,86.17
2023-01-17T05:32:30.456Z,85.96
2023-01-17T05:33:30.397Z,86.21
2023-01-17T05:34:30.369Z,87.04
2023-01-17T05:35:30.294Z,87.46
2023-01-17T05:36:30.331Z,87.66
2023-01-17T05:37:30.340Z,87.42
2023-01-17T05:38:30.244Z,87.66
2023-01-17T05:39:30.268Z,89.23
2023-01-17T05:40:30.306Z,89.12
2023-01-17T05:41:30.297Z,89.23
2023-01-17T05:42:30.241Z,89.43
2023-01-17T05:43:30.253Z,89.43
2023-01-17T05:44:30.282Z,88.81
2023-01-17T05:45:30.176Z,87.66
2023-01-17T05:46:30.207Z,87.46
2023-01-17T05:47:30.145Z,87.35
2023-01-17T05:48:30.158Z,86.42
2023-01-17T05:49:30.173Z,86.42
2023-01-17T05:50:30.212Z,86.11
2023-01-17T05:51:30.146Z,86.11
2023-01-17T05:52:30.147Z,86.21
2023-01-17T05:53:30.223Z,86.32
2023-01-17T05:54:30.215Z,86.63
2023-01-17T05:55:30.182Z,86.32
2023-01-17T05:56:30.098Z,87.04
2023-01-17T05:57:30.131Z,87.15
2023-01-17T05:58:30.067Z,87.35
2023-01-17T05:59:36.969Z,87.52
2023-01-17T06:00:31.093Z,87.66
2023-01-17T06:01:30.139Z,87.88
2023-01-17T06:02:30.123Z,89.23
2023-01-17T06:03:30.067Z,89.06
2023-01-17T06:04:30.070Z,89.27
2023-01-17T06:05:30.104Z,89.64
2023-01-17T06:06:30.134Z,89.69
2023-01-17T06:07:29.963Z,90.52
2023-01-17T06:08:30.006Z,91.08
2023-01-17T06:09:30.061Z,91.18
2023-01-17T06:10:29.935Z,91.18
2023-01-17T06:11:29.960Z,91.18
2023-01-17T06:12:29.890Z,91.39
2023-01-17T06:13:29.914Z,91.81
2023-01-17T06:14:29.920Z,92.22
2023-01-17T06:15:29.917Z,92.43
2023-01-17T06:16:29.883Z,92.43
2023-01-17T06:17:30.042Z,92.54
2023-01-17T06:18:29.927Z,92.74
2023-01-17T06:19:30.040Z,93.05
2023-01-17T06:20:29.929Z,93.31
2023-01-17T06:21:29.908Z,93.52
2023-01-17T06:22:29.914Z,93.93
2023-01-17T06:23:29.909Z,93.83
2023-01-17T06:24:29.950Z,94.14
2023-01-17T06:25:29.924Z,94.45
2023-01-17T06:26:29.934Z,94.24
2023-01-17T06:27:29.952Z,94.56
2023-01-17T06:28:29.856Z,94.20
2023-01-17T06:29:29.841Z,93.83
2023-01-17T06:30:29.797Z,92.58
2023-01-17T06:31:29.815Z,92.47
2023-01-17T06:32:29.746Z,92.54
2023-01-17T06:33:29.766Z,92.89
2023-01-17T06:34:29.713Z,92.64
2023-01-17T06:35:29.688Z,92.02
2023-01-17T06:36:29.720Z,92.58
2023-01-17T06:37:29.667Z,91.50
2023-01-17T06:38:29.739Z,91.60
2023-01-17T06:39:29.837Z,91.18
2023-01-17T06:40:29.615Z,91.50
2023-01-17T06:41:29.647Z,91.43
2023-01-17T06:42:29.666Z,91.28
2023-01-17T06:43:29.645Z,91.18
2023-01-17T06:44:29.644Z,91.18
2023-01-17T06:45:29.710Z,91.28
2023-01-17T06:46:29.746Z,90.35
2023-01-17T06:47:29.581Z,89.52
2023-01-17T06:48:29.551Z,90.14
2023-01-17T06:49:29.570Z,90.25
2023-01-17T06:50:29.554Z,90.35
2023-01-17T06:51:29.541Z,90.20
2023-01-17T06:52:29.531Z,89.62
2023-01-17T06:53:29.493Z,89.00
2023-01-17T06:54:29.550Z,89.00
2023-01-17T06:55:29.485Z,89.37
2023-01-17T06:56:29.511Z,89.00
2023-01-17T06:57:29.512Z,89.00
2023-01-17T06:58:30.109Z,88.79
2023-01-17T06:59:29.479Z,88.79
2023-01-17T07:00:40.947Z,89.58
2023-01-17T07:01:30.528Z,89.73
2023-01-17T07:02:29.460Z,88.96
2023-01-17T07:03:29.466Z,88.75
2023-01-17T07:04:29.417Z,89.06
2023-01-17T07:05:29.432Z,89.48
2023-01-17T07:06:29.325Z,89.37
2023-01-17T07:07:29.370Z,89.41
2023-01-17T07:08:29.390Z,89.27
2023-01-17T07:09:29.310Z,89.41
2023-01-17T07:10:29.261Z,88.68
2023-01-17T07:11:29.314Z,88.85
2023-01-17T07:12:29.330Z,88.96
2023-01-17T07:13:29.275Z,88.75
2023-01-17T07:14:29.308Z,87.54
2023-01-17T07:15:29.236Z,88.06
2023-01-17T07:16:29.333Z,87.65
2023-01-17T07:17:29.871Z,87.75
2023-01-17T07:18:29.241Z,87.54
2023-01-17T07:19:29.352Z,87.75
2023-01-17T07:20:29.225Z,87.75
2023-01-17T07:21:29.223Z,87.43
2023-01-17T07:22:29.206Z,87.75
2023-01-17T07:23:29.840Z,87.71
2023-01-17T07:24:29.166Z,87.65
2023-01-17T07:25:29.164Z,88.06
2023-01-17T07:26:29.115Z,87.54
2023-01-17T07:27:29.139Z,88.06
2023-01-17T07:28:29.160Z,88.68
2023-01-17T07:29:29.150Z,88.96
2023-01-17T07:30:29.083Z,88.79
2023-01-17T07:31:29.129Z,88.33
2023-01-17T07:32:29.086Z,88.23
2023-01-17T07:33:29.052Z,88.68
2023-01-17T07:34:29.052Z,89.48
2023-01-17T07:35:29.023Z,89.41
2023-01-17T07:36:29.027Z,89.62
2023-01-17T07:37:29.040Z,89.31
2023-01-17T07:38:28.983Z,89.41
2023-01-17T07:39:28.972Z,89.10
2023-01-17T07:40:28.960Z,89.10
2023-01-17T07:41:28.965Z,89.20
2023-01-17T07:42:28.989Z,89.00
2023-01-17T07:44:02.391Z,89.20
2023-01-17T07:45:01.325Z,89.10
2023-01-17T07:45:28.909Z,89.41
2023-01-17T07:46:28.933Z,89.52
2023-01-17T07:47:28.909Z,89.73
2023-01-17T07:48:28.915Z,89.20
2023-01-17T07:49:28.884Z,89.20
2023-01-17T07:50:28.883Z,89.41
2023-01-17T07:51:28.899Z,89.73
2023-01-17T07:52:28.838Z,89.83
2023-01-17T07:53:28.802Z,89.73
2023-01-17T07:54:28.867Z,89.73
2023-01-17T07:55:28.816Z,89.62
2023-01-17T07:56:28.808Z,89.73
2023-01-17T07:57:28.822Z,89.73
2023-01-17T07:58:28.784Z,90.08
2023-01-17T07:59:28.746Z,90.29
2023-01-17T08:00:28.769Z,90.35
2023-01-17T08:01:28.827Z,90.25
2023-01-17T08:02:28.780Z,90.25
2023-01-17T08:03:28.767Z,89.94
2023-01-17T08:04:28.788Z,90.35
2023-01-17T08:05:28.744Z,90.25
2023-01-17T08:06:28.701Z,90.56
2023-01-17T08:07:28.734Z,91.18
2023-01-17T08:08:28.680Z,90.66
2023-01-17T08:09:28.695Z,90.31
2023-01-17T08:10:28.685Z,89.89
2023-01-17T08:11:28.628Z,90.04
2023-01-17T08:12:28.639Z,89.48
2023-01-17T08:13:29.936Z,89.58
2023-01-17T08:14:29.616Z,89.37
2023-01-17T08:15:28.608Z,89.79
2023-01-17T08:16:28.728Z,89.37
2023-01-17T08:17:29.314Z,89.52
2023-01-17T08:18:29.290Z,89.69
2023-01-17T08:19:28.571Z,89.48
2023-01-17T08:20:28.594Z,89.79
2023-01-17T08:21:28.541Z,89.95
2023-01-17T08:22:28.542Z,89.23
2023-01-17T08:23:28.531Z,88.98
2023-01-17T08:24:28.534Z,89.02
2023-01-17T08:25:28.502Z,89.27
2023-01-17T08:26:28.519Z,89.48
2023-01-17T08:27:28.501Z,90.10
2023-01-17T08:28:28.480Z,89.64
2023-01-17T08:29:28.482Z,89.89
2023-01-17T08:30:28.443Z,90.20
2023-01-17T08:31:28.486Z,91.10
2023-01-17T08:32:28.422Z,89.33
2023-01-17T08:33:28.496Z,90.00
2023-01-17T08:34:28.399Z,91.35
2023-01-17T08:35:28.420Z,90.62
2023-01-17T08:36:28.385Z,91.28
2023-01-17T08:37:28.383Z,91.81
2023-01-17T08:38:28.360Z,92.37
2023-01-17T08:39:28.380Z,92.79
2023-01-17T08:40:28.363Z,92.47
2023-01-17T08:41:28.352Z,92.58
2023-01-17T08:42:28.310Z,92.37
2023-01-17T08:43:28.347Z,91.81
2023-01-17T08:44:28.295Z,92.22
2023-01-17T08:45:28.376Z,92.06
2023-01-17T08:46:28.252Z,92.79
2023-01-17T08:47:28.263Z,93.10
2023-01-17T08:48:29.205Z,92.64
2023-01-17T08:49:28.802Z,91.81
2023-01-17T08:50:28.211Z,91.85
2023-01-17T08:51:28.218Z,92.43
2023-01-17T08:52:28.208Z,91.75
2023-01-17T08:53:28.232Z,91.50
2023-01-17T08:54:28.808Z,92.16
2023-01-17T08:55:28.223Z,92.33
2023-01-17T08:56:28.207Z,91.50
2023-01-17T08:57:28.147Z,91.66
2023-01-17T08:58:30.311Z,91.25
2023-01-17T08:59:28.132Z,91.35
2023-01-17T09:00:28.116Z,91.60
2023-01-17T09:01:28.327Z,91.28
2023-01-17T09:02:28.142Z,91.04
2023-01-17T09:03:28.083Z,91.18
2023-01-17T09:04:28.154Z,91.14
2023-01-17T09:05:28.087Z,91.14
2023-01-17T09:06:28.782Z,90.41
2023-01-17T09:07:28.085Z,90.10
2023-01-17T09:08:28.024Z,89.69
2023-01-17T09:09:28.040Z,90.16
2023-01-17T09:10:28.044Z,89.75
2023-01-17T09:11:28.058Z,89.54
2023-01-17T09:12:28.012Z,89.85
2023-01-17T09:13:28.093Z,89.37
2023-01-17T09:14:27.992Z,89.64
2023-01-17T09:15:27.985Z,89.75
2023-01-17T09:16:28.014Z,89.85
2023-01-17T09:17:27.955Z,90.06
2023-01-17T09:18:27.968Z,89.33
2023-01-17T09:19:27.964Z,89.43
2023-01-17T09:20:27.941Z,89.33
2023-01-17T09:21:27.927Z,89.54
2023-01-17T09:22:27.938Z,89.64
2023-01-17T09:23:27.985Z,89.12
2023-01-17T09:24:27.886Z,89.33
2023-01-17T09:25:27.876Z,89.70
2023-01-17T09:26:27.877Z,89.70
2023-01-17T09:27:27.858Z,89.02
2023-01-17T09:28:27.887Z,89.23
2023-01-17T09:29:27.883Z,88.98
2023-01-17T09:30:27.851Z,89.08
2023-01-17T09:31:27.847Z,89.23
2023-01-17T09:32:27.807Z,89.43
2023-01-17T09:33:27.791Z,89.23
2023-01-17T09:34:27.834Z,89.29
2023-01-17T09:35:27.759Z,88.98
2023-01-17T09:36:27.733Z,89.43
2023-01-17T09:37:27.757Z,89.08
2023-01-17T09:38:27.756Z,89.29
2023-01-17T09:39:27.810Z,89.12
2023-01-17T09:40:27.724Z,89.23
2023-01-17T09:41:27.861Z,89.75
2023-01-17T09:42:27.679Z,89.54
2023-01-17T09:43:28.666Z,89.64
2023-01-17T09:44:27.678Z,89.60
2023-01-17T09:45:27.707Z,89.50
2023-01-17T09:46:27.636Z,89.60
2023-01-17T09:47:27.715Z,89.25
2023-01-17T09:48:27.628Z,88.85
2023-01-17T09:49:27.619Z,88.85
2023-01-17T09:50:27.612Z,88.36
2023-01-17T09:51:27.615Z,86.10
2023-01-17T09:52:27.648Z,84.68
2023-01-17T09:53:27.587Z,82.67
2023-01-17T09:54:27.571Z,82.32
2023-01-17T09:55:27.616Z,81.32
2023-01-17T09:56:27.526Z,80.70
2023-01-17T09:57:27.560Z,80.21
2023-01-17T09:58:27.497Z,79.90
2023-01-17T09:59:33.270Z,79.14
2023-01-17T10:00:28.529Z,77.80
2023-01-17T10:01:27.795Z,77.59
2023-01-17T10:02:27.675Z,76.43
2023-01-17T10:03:27.587Z,77.74
2023-01-17T10:04:27.496Z,79.19
2023-01-17T10:05:27.440Z,79.60
2023-01-17T10:06:27.463Z,80.40
2023-01-17T10:07:27.427Z,81.23
2023-01-17T10:08:27.414Z,81.68
2023-01-17T10:09:27.386Z,81.37
2023-01-17T10:10:27.405Z,81.29
2023-01-17T10:11:27.367Z,80.91
2023-01-17T10:12:27.393Z,81.95
2023-01-17T10:13:27.395Z,81.88
2023-01-17T10:14:27.331Z,81.64
2023-01-17T10:15:27.332Z,81.74
2023-01-17T10:16:27.332Z,81.12
2023-01-17T10:17:27.345Z,80.67
2023-01-17T10:18:30.427Z,79.94
2023-01-17T10:19:28.317Z,79.19
2023-01-17T10:20:27.329Z,78.46
2023-01-17T10:21:27.265Z,77.74
2023-01-17T10:22:27.269Z,78.43
2023-01-17T10:23:27.301Z,78.02
2023-01-17T10:24:27.247Z,78.26
2023-01-17T10:25:27.213Z,78.88
2023-01-17T10:26:27.245Z,79.40
2023-01-17T10:27:28.179Z,80.05
2023-01-17T10:28:27.198Z,80.05
2023-01-17T10:29:27.202Z,80.74
2023-01-17T10:30:27.181Z,79.71
2023-01-17T10:31:27.158Z,78.02
2023-01-17T10:32:27.181Z,77.84
2023-01-17T10:33:27.179Z,77.78
2023-01-17T10:34:27.111Z,78.61
2023-01-17T10:35:27.169Z,78.61
2023-01-17T10:36:27.114Z,77.78
2023-01-17T10:37:27.159Z,78.40
2023-01-17T10:38:27.086Z,79.33
2023-01-17T10:39:27.071Z,79.64
2023-01-17T10:40:27.057Z,80.19
2023-01-17T10:41:27.062Z,79.78
2023-01-17T10:42:27.065Z,80.75
2023-01-17T10:43:27.033Z,80.85
2023-01-17T10:44:27.089Z,81.13
2023-01-17T10:45:27.013Z,80.96
2023-01-17T10:46:27.058Z,81.85
2023-01-17T10:47:26.994Z,81.02
2023-01-17T10:48:26.978Z,81.13
2023-01-17T10:49:26.959Z,80.71
2023-01-17T10:50:26.982Z,81.34
2023-01-17T10:51:26.945Z,81.34
2023-01-17T10:52:26.938Z,80.71
2023-01-17T10:53:26.940Z,81.93
2023-01-17T10:54:26.915Z,82.34
2023-01-17T10:55:26.906Z,83.73
2023-01-17T10:56:26.947Z,84.07
2023-01-17T10:57:26.878Z,81.44
2023-01-17T10:59:00.711Z,81.23
2023-01-17T10:59:26.895Z,80.11
2023-01-17T11:00:26.871Z,78.84
2023-01-17T11:01:26.917Z,77.53
2023-01-17T11:02:27.049Z,76.12
2023-01-17T11:03:26.866Z,74.46
2023-01-17T11:04:26.849Z,72.96
2023-01-17T11:05:26.786Z,71.34
2023-01-17T11:06:26.807Z,73.47
2023-01-17T11:07:26.866Z,73.29
2023-01-17T11:08:26.788Z,73.09
2023-01-17T11:09:26.858Z,74.36
2023-01-17T11:10:26.777Z,72.09
2023-01-17T11:11:26.727Z,70.72
2023-01-17T11:12:26.739Z,69.22
2023-01-17T11:13:26.715Z,69.60
2023-01-17T11:14:26.719Z,69.12
2023-01-17T11:15:26.677Z,67.96
2023-01-17T11:16:27.688Z,66.60
2023-01-17T11:17:27.757Z,63.66
2023-01-17T11:18:26.745Z,64.01
2023-01-17T11:19:26.773Z,63.34
2023-01-17T11:20:26.699Z,61.54
2023-01-17T11:21:26.756Z,59.63
2023-01-17T11:22:26.685Z,59.78
2023-01-17T11:23:26.636Z,58.20
2023-01-17T11:24:26.766Z,58.39
2023-01-17T11:25:26.623Z,59.64
2023-01-17T11:26:26.618Z,59.36
2023-01-17T11:27:26.599Z,59.42
2023-01-17T11:28:26.579Z,59.14
2023-01-17T11:29:26.606Z,59.61
2023-01-17T11:30:26.571Z,60.05
2023-01-17T11:31:26.669Z,60.07
2023-01-17T11:32:26.520Z,62.06
2023-01-17T11:33:27.890Z,62.13
2023-01-17T11:34:26.531Z,59.55
2023-01-17T11:35:26.540Z,57.31
2023-01-17T11:36:26.479Z,55.69
2023-01-17T11:37:26.485Z,54.51
2023-01-17T11:38:26.476Z,53.16
2023-01-17T11:39:26.522Z,54.23
2023-01-17T11:40:26.410Z,53.26
2023-01-17T11:41:26.459Z,51.91
2023-01-17T11:42:26.456Z,52.70
2023-01-17T11:43:26.413Z,52.01
2023-01-17T11:44:26.426Z,51.68
2023-01-17T11:45:26.393Z,50.25
2023-01-17T11:46:26.387Z,50.07
2023-01-17T11:47:26.383Z,49.58
2023-01-17T11:48:26.360Z,51.29
2023-01-17T11:49:26.363Z,51.14
2023-01-17T11:50:26.362Z,52.01
2023-01-17T11:51:26.381Z,52.70
2023-01-17T11:52:26.391Z,50.27
2023-01-17T11:53:26.287Z,52.75
2023-01-17T11:54:26.314Z,54.02
2023-01-17T11:55:26.343Z,53.79
2023-01-17T11:56:26.321Z,55.18
2023-01-17T11:57:26.333Z,52.97
2023-01-17T11:58:26.304Z,52.64
2023-01-17T11:59:26.221Z,51.10
2023-01-17T12:00:26.208Z,50.88
2023-01-17T12:01:26.242Z,50.78
2023-01-17T12:02:26.200Z,50.14
2023-01-17T12:03:26.228Z,49.09
2023-01-17T12:04:26.200Z,49.17
2023-01-17T12:05:26.210Z,50.04
2023-01-17T12:06:26.288Z,49.13
2023-01-17T12:07:26.108Z,47.90
2023-01-17T12:08:26.155Z,48.43
2023-01-17T12:09:26.142Z,48.76
2023-01-17T12:10:26.162Z,49.83
2023-01-17T12:11:26.125Z,50.47
2023-01-17T12:12:26.161Z,51.29
2023-01-17T12:13:26.149Z,51.42
2023-01-17T12:14:26.089Z,50.42
2023-01-17T12:15:26.069Z,51.67
2023-01-17T12:16:26.085Z,51.13
2023-01-17T12:17:26.067Z,52.08
2023-01-17T12:18:26.021Z,52.67
2023-01-17T12:19:26.141Z,53.08
2023-01-17T12:20:26.010Z,52.34
2023-01-17T12:21:26.008Z,51.31
2023-01-17T12:22:26.111Z,50.26
2023-01-17T12:23:26.035Z,48.91
2023-01-17T12:24:25.969Z,48.91
2023-01-17T12:25:26.001Z,46.82
2023-01-17T12:26:25.998Z,47.44
2023-01-17T12:27:25.945Z,49.96
2023-01-17T12:28:26.674Z,50.62
2023-01-17T12:29:25.879Z,50.72
2023-01-17T12:30:25.857Z,51.05
2023-01-17T12:31:26.008Z,52.97
2023-01-17T12:32:25.859Z,53.49
2023-01-17T12:33:25.830Z,52.12
2023-01-17T12:34:25.809Z,50.85
2023-01-17T12:35:25.843Z,49.75
2023-01-17T12:36:25.791Z,48.79
2023-01-17T12:37:25.846Z,48.94
2023-01-17T12:38:32.611Z,49.22
2023-01-17T12:39:27.817Z,48.92
2023-01-17T12:40:25.827Z,48.59
2023-01-17T12:41:25.750Z,47.65
2023-01-17T12:42:25.778Z,48.98
2023-01-17T12:43:26.220Z,47.39
2023-01-17T12:44:25.718Z,48.54
2023-01-17T12:45:25.730Z,47.31
2023-01-17T12:46:25.834Z,49.38
2023-01-17T12:47:25.718Z,47.45
2023-01-17T12:48:25.743Z,48.79
2023-01-17T12:49:25.692Z,48.50
2023-01-17T12:50:25.683Z,48.73
2023-01-17T12:51:25.651Z,48.63
2023-01-17T12:52:25.636Z,49.06